This is the latest recevied weather packets stored in our database for station/object F5TND-3. If no packets are shown the sender has not sent any weather packets the latest 10 day(s).
| Time | Temp. | Humidity | Pressure | Rain* | Wind** | Luminosity | Snow |
|---|---|---|---|---|---|---|---|
| 1787673531 | 28.89° C | 45% | 1009.2 hPa | - | - | - | - |
| 1787672333 | 26.67° C | 49% | 1009.2 hPa | - | - | - | - |
| 1787671123 | 27.22° C | 50% | 1009 hPa | - | - | - | - |
| 1787669923 | 27.78° C | 47% | 1009.3 hPa | - | - | - | - |
| 1787668723 | 27.22° C | 48% | 1009.2 hPa | - | - | - | - |
| 1787667523 | 26.67° C | 51% | 1008.9 hPa | - | - | - | - |
| 1787666323 | 27.78° C | 48% | 1008.9 hPa | - | - | - | - |
| 1787665123 | 28.33° C | 48% | 1009 hPa | - | - | - | - |
| 1787663923 | 30° C | 45% | 1009 hPa | - | - | - | - |
| 1787662723 | 28.33° C | 50% | 1009 hPa | - | - | - | - |
| 1787661523 | 28.33° C | 50% | 1008.8 hPa | - | - | - | - |
| 1787660322 | 27.78° C | 50% | 1008.9 hPa | - | - | - | - |
| 1787659122 | 29.44° C | 47% | 1008.8 hPa | - | - | - | - |
| 1787657922 | 27.78° C | 56% | 1008.9 hPa | - | - | - | - |
| 1787656708 | 27.78° C | 58% | 1008.9 hPa | - | - | - | - |
| 1787654308 | 26.67° C | 62% | 1008.9 hPa | - | - | - | - |
| 1787651905 | 26.67° C | 66% | 1008.7 hPa | - | - | - | - |
| 1787650705 | 23.89° C | 78% | 1008.7 hPa | - | - | - | - |
| 1787649505 | 22.78° C | 82% | 1008.4 hPa | - | - | - | - |
| 1787648304 | 23.33° C | 80% | 1008.3 hPa | - | - | - | - |
| 1787647105 | 22.78° C | 90% | 1008.1 hPa | - | - | - | - |
| 1787645904 | 21.11° C | 98% | 1007.9 hPa | - | - | - | - |
| 1787644704 | 22.22° C | 89% | 1007.8 hPa | - | - | - | - |
| 1787643504 | 23.89° C | 77% | 1007.6 hPa | - | - | - | - |
| 1787642311 | 21.11° C | 95% | 1007.5 hPa | - | - | - | - |
* Rain since midnight (hover to see other rain measurements)
** Current wind speed in m/s (hover to see current wind gust speed)